Mobile, AL

3:33 PM CST on January 21, 2017 (GMT -0600)
Breckenridge Subdivision | | Change Station

Elev 194 ft 30.69 °N, 88.28 °W | Updated 12 seconds ago

Overcast
Overcast
73.8 °F
Feels Like 75 °F
N
0.0
Wind Variable Wind from ESE
Gusts 3.0 mph

Today
High -- | Low -- °F
--% Chance of Precip.
Yesterday
High -- | Low -- °F
Precip. -- in
Pressure 29.64 in
Visibility 10.0 miles
Clouds Mostly Cloudy 2300 ft
Overcast 2900 ft
Heat Index 75 °F
Dew Point 65 °F
Humidity 73%
Rainfall 0.70 in
Snow Depth Not available.
6:49 AM 5:19 PM
Waning Crescent, 32% visible
METAR KMOB 212056Z 15008KT 10SM BKN023 OVC029 23/17 A2964 RMK AO2 SLP035 T02280167 56025
Pressure 29.64 in
Visibility 10.0 miles
Clouds Mostly Cloudy 2300 ft
Overcast 2900 ft
Heat Index 75 °F
Dew Point 65 °F
Humidity 73%
Rainfall 0.70 in
Snow Depth Not available.
6:49 AM 5:19 PM
Waning Crescent, 32% visible
METAR KMOB 212056Z 15008KT 10SM BKN023 OVC029 23/17 A2964 RMK AO2 SLP035 T02280167 56025

Get Your Daily Forecast Email!

Thanks for signing up!

Be on the lookout for a verification email in your inbox.

You'll start receiving the daily forecast at 8 AM.

×

10-Day Weather Forecast

Almanac

Astronomy

Jan. 21, 2017 Rise Set
Actual Time
Civil Twilight
Nautical Twilight
Astronomical Twilight
Moon
Length of Visible Light
Length of Day
Tomorrow will be .
, % of the Moon is Illuminated

Today's Extremes

State Highs State Lows

Community

WunderPhotos

Upload Photos

1,962,540 photos uploaded!

WunderBlog® & News

Nearby

Air Quality

  Air Quality AQ Index Pollutant
Not available.

Snow Depth

Station Depth Elevation

Earthquake Activity

City Distance Mag. Time & Date
Minimum magnitude displayed is 2.5.

Coastal Water Temperatures

Place Temperature

Stations

Nearby Weather Stations

Station Location Temp. Windchill Dew Point Humidity Wind Precip. Elev Updated Type
                   

Watches & Warnings

There are currently no watches in effect.